createdAt,value
2023-01-31T00:00:24.197Z,17.67
2023-01-31T00:01:27.311Z,21.67
2023-01-31T00:02:30.615Z,18.70
2023-01-31T00:03:32.075Z,17.87
2023-01-31T00:04:33.479Z,17.53
2023-01-31T00:05:35.103Z,19.87
2023-01-31T00:06:38.759Z,21.60
2023-01-31T00:07:40.197Z,20.63
2023-01-31T00:08:41.985Z,19.87
2023-01-31T00:09:43.530Z,18.23
2023-01-31T00:10:44.914Z,19.70
2023-01-31T00:11:46.303Z,24.20
2023-01-31T00:12:47.716Z,21.10
2023-01-31T00:13:49.532Z,17.77
2023-01-31T00:14:50.946Z,19.57
2023-01-31T00:15:52.337Z,19.77
2023-01-31T00:16:53.887Z,17.77
2023-01-31T00:17:55.407Z,18.43
2023-01-31T00:18:56.795Z,19.17
2023-01-31T00:19:58.182Z,17.20
2023-01-31T00:21:07.751Z,20.50
2023-01-31T00:22:09.197Z,18.60
2023-01-31T00:23:10.661Z,17.80
2023-01-31T00:24:13.123Z,16.70
2023-01-31T00:25:14.515Z,17.60
2023-01-31T00:26:18.343Z,21.83
2023-01-31T00:27:19.851Z,20.50
2023-01-31T00:28:21.222Z,18.63
2023-01-31T00:29:24.355Z,17.30
2023-01-31T00:30:26.245Z,22.37
2023-01-31T00:31:28.582Z,22.63
2023-01-31T00:32:30.087Z,17.23
2023-01-31T00:33:31.436Z,20.00
2023-01-31T00:34:32.724Z,19.73
2023-01-31T00:35:37.399Z,21.73
2023-01-31T00:36:39.955Z,18.53
2023-01-31T00:37:44.154Z,18.63
2023-01-31T00:38:51.015Z,22.07
2023-01-31T00:39:52.445Z,20.63
2023-01-31T00:40:54.213Z,21.70
2023-01-31T00:41:55.513Z,22.73
2023-01-31T00:42:56.828Z,20.10
2023-01-31T00:43:58.365Z,22.60
2023-01-31T00:44:59.825Z,21.60
2023-01-31T00:46:01.376Z,20.00
2023-01-31T00:47:06.381Z,19.97
2023-01-31T00:48:08.017Z,19.67
2023-01-31T00:49:09.359Z,20.13
2023-01-31T00:50:14.697Z,21.60
2023-01-31T00:51:16.273Z,20.50
2023-01-31T00:52:17.690Z,27.50
2023-01-31T00:53:23.631Z,24.23
2023-01-31T00:54:25.324Z,23.10
2023-01-31T00:55:26.716Z,23.77
2023-01-31T00:56:28.216Z,21.07
2023-01-31T00:57:29.703Z,20.80
2023-01-31T00:58:31.111Z,26.93
2023-01-31T00:59:32.674Z,19.87
2023-01-31T01:00:34.888Z,21.17
2023-01-31T01:01:37.973Z,21.87
2023-01-31T01:02:39.682Z,25.00
2023-01-31T01:03:42.458Z,19.00
2023-01-31T01:04:43.857Z,16.70
2023-01-31T01:05:46.778Z,19.93
2023-01-31T01:06:50.272Z,21.03
2023-01-31T01:07:51.584Z,21.30
2023-01-31T01:08:53.437Z,20.50
2023-01-31T01:09:56.233Z,20.37
2023-01-31T01:11:03.825Z,20.20
2023-01-31T01:12:05.320Z,21.03
2023-01-31T01:13:06.797Z,23.23
2023-01-31T01:14:09.832Z,24.70
2023-01-31T01:15:11.347Z,23.10
2023-01-31T01:16:14.391Z,23.17
2023-01-31T01:17:16.011Z,19.80
2023-01-31T01:18:17.394Z,22.33
2023-01-31T01:19:19.798Z,20.87
2023-01-31T01:20:21.916Z,21.27
2023-01-31T01:21:27.711Z,22.80
2023-01-31T01:22:34.014Z,23.30
2023-01-31T01:23:36.615Z,23.37
2023-01-31T01:24:37.933Z,24.17
2023-01-31T01:25:42.937Z,23.37
2023-01-31T01:26:44.935Z,22.93
2023-01-31T01:27:46.325Z,22.80
2023-01-31T01:28:48.079Z,26.37
2023-01-31T01:29:49.414Z,23.07
2023-01-31T01:30:50.732Z,19.27
2023-01-31T01:31:52.125Z,21.83
2023-01-31T01:32:54.775Z,20.37
2023-01-31T01:34:00.915Z,20.53
2023-01-31T01:35:02.782Z,22.43
2023-01-31T01:36:05.084Z,25.43
2023-01-31T01:37:11.915Z,20.37
2023-01-31T01:38:13.374Z,20.97
2023-01-31T01:39:14.812Z,19.80
2023-01-31T01:40:17.357Z,21.90
2023-01-31T01:41:19.176Z,22.30
2023-01-31T01:42:22.295Z,21.97
2023-01-31T01:43:38.924Z,23.43
2023-01-31T01:44:46.254Z,20.63
2023-01-31T01:45:47.937Z,23.33
2023-01-31T01:46:52.052Z,20.30
2023-01-31T01:47:55.325Z,24.10
2023-01-31T01:49:11.623Z,20.07
2023-01-31T01:50:21.034Z,22.77
2023-01-31T01:51:23.348Z,20.97
2023-01-31T01:52:27.341Z,23.23
2023-01-31T01:53:29.640Z,25.33
2023-01-31T01:54:36.246Z,24.17
2023-01-31T01:55:42.400Z,22.93
2023-01-31T01:56:46.326Z,20.27
2023-01-31T01:57:50.372Z,22.73
2023-01-31T01:58:54.497Z,25.93
2023-01-31T02:00:09.604Z,22.83
2023-01-31T02:01:16.912Z,20.33
2023-01-31T02:02:21.399Z,17.63
2023-01-31T02:03:23.804Z,22.90
2023-01-31T02:04:27.268Z,23.87
2023-01-31T02:05:33.256Z,23.93
2023-01-31T02:06:34.770Z,20.50
2023-01-31T02:07:36.169Z,22.00
2023-01-31T02:08:39.032Z,22.00
2023-01-31T02:09:55.706Z,24.20
2023-01-31T02:11:14.580Z,22.90
2023-01-31T02:12:15.944Z,23.00
2023-01-31T02:13:18.556Z,19.07
2023-01-31T02:14:20.462Z,25.17
2023-01-31T02:15:22.709Z,22.13
2023-01-31T02:16:24.711Z,20.73
2023-01-31T02:17:26.746Z,24.13
2023-01-31T02:18:28.283Z,21.13
2023-01-31T02:19:35.533Z,24.87
2023-01-31T02:20:36.963Z,20.03
2023-01-31T02:21:57.397Z,23.03
2023-01-31T02:23:09.659Z,21.07
2023-01-31T02:24:33.596Z,22.17
2023-01-31T02:25:46.809Z,21.67
2023-01-31T02:27:06.983Z,18.43
2023-01-31T02:28:15.230Z,24.40
2023-01-31T02:29:35.505Z,23.37
2023-01-31T02:30:48.681Z,22.70
2023-01-31T02:31:59.273Z,22.47
2023-01-31T02:33:19.528Z,24.93
2023-01-31T02:34:39.500Z,20.47
2023-01-31T02:35:59.042Z,30.50
2023-01-31T02:37:17.752Z,21.53
2023-01-31T02:38:31.922Z,21.57
2023-01-31T02:39:43.619Z,19.20
2023-01-31T02:40:45.179Z,21.87
2023-01-31T02:41:49.543Z,21.53
2023-01-31T02:42:59.561Z,25.17
2023-01-31T02:44:24.740Z,21.30
2023-01-31T02:45:40.547Z,23.93
2023-01-31T02:47:01.853Z,18.63
2023-01-31T02:48:28.990Z,23.40
2023-01-31T02:49:36.029Z,18.73
2023-01-31T02:50:47.953Z,21.30
2023-01-31T02:52:10.091Z,21.30
2023-01-31T02:53:38.034Z,18.60
2023-01-31T02:54:57.933Z,21.53
2023-01-31T02:56:18.464Z,18.90
2023-01-31T02:57:21.186Z,24.27
2023-01-31T02:58:24.252Z,20.10
2023-01-31T02:59:27.902Z,23.23
2023-01-31T03:00:33.113Z,19.40
2023-01-31T03:01:36.720Z,19.30
2023-01-31T03:02:38.432Z,20.60
2023-01-31T03:03:40.128Z,20.30
2023-01-31T03:04:42.974Z,22.13
2023-01-31T03:05:44.394Z,21.20
2023-01-31T03:06:54.709Z,17.87
2023-01-31T03:07:58.422Z,17.80
2023-01-31T03:09:04.382Z,21.50
2023-01-31T03:10:28.629Z,20.43
2023-01-31T03:11:38.784Z,21.93
2023-01-31T03:12:48.245Z,22.17
2023-01-31T03:13:49.719Z,18.63
2023-01-31T03:14:53.957Z,19.20
2023-01-31T03:16:25.839Z,18.23
2023-01-31T03:17:43.396Z,17.80
2023-01-31T03:19:03.772Z,18.70
2023-01-31T03:20:11.014Z,18.97
2023-01-31T03:21:17.576Z,19.10
2023-01-31T03:22:24.071Z,20.10
2023-01-31T03:23:29.709Z,18.60
2023-01-31T03:24:31.763Z,16.67
2023-01-31T03:25:35.061Z,19.10
2023-01-31T03:26:38.877Z,20.70
2023-01-31T03:27:44.024Z,23.30
2023-01-31T03:28:46.626Z,18.93
2023-01-31T03:29:48.188Z,18.17
2023-01-31T03:31:04.438Z,21.03
2023-01-31T03:32:11.994Z,18.33
2023-01-31T03:33:39.763Z,22.07
2023-01-31T03:34:41.384Z,17.27
2023-01-31T03:35:47.004Z,19.50
2023-01-31T03:36:55.892Z,18.90
2023-01-31T03:38:25.077Z,16.33
2023-01-31T03:39:45.897Z,19.73
2023-01-31T03:40:58.270Z,22.07
2023-01-31T03:42:09.245Z,20.70
2023-01-31T03:43:17.265Z,21.77
2023-01-31T03:44:30.436Z,19.03
2023-01-31T03:45:46.902Z,21.77
2023-01-31T03:46:51.457Z,21.83
2023-01-31T03:47:54.369Z,19.23
2023-01-31T03:48:56.415Z,21.53
2023-01-31T03:50:01.471Z,18.13
2023-01-31T03:51:04.710Z,20.30
2023-01-31T03:52:07.721Z,18.00
2023-01-31T03:53:17.535Z,23.57
2023-01-31T03:54:20.991Z,17.60
2023-01-31T03:55:32.478Z,18.57
2023-01-31T03:56:45.444Z,17.17
2023-01-31T03:57:50.060Z,19.97
2023-01-31T03:58:54.558Z,21.17
2023-01-31T04:00:00.144Z,19.27
2023-01-31T04:01:04.148Z,18.03
2023-01-31T04:02:07.432Z,18.00
2023-01-31T04:03:18.159Z,21.07
2023-01-31T04:04:22.813Z,16.97
2023-01-31T04:05:25.091Z,18.43
2023-01-31T04:06:30.208Z,17.63
2023-01-31T04:07:32.807Z,18.17
2023-01-31T04:08:36.025Z,17.87
2023-01-31T04:09:40.860Z,19.77
2023-01-31T04:10:42.467Z,20.67
2023-01-31T04:11:46.717Z,19.40
2023-01-31T04:12:48.140Z,20.67
2023-01-31T04:13:49.499Z,18.13
2023-01-31T04:14:50.877Z,19.20
2023-01-31T04:15:52.333Z,17.73
2023-01-31T04:16:54.085Z,17.33
2023-01-31T04:17:55.647Z,22.43
2023-01-31T04:18:57.248Z,17.37
2023-01-31T04:19:59.076Z,22.93
2023-01-31T04:21:00.446Z,19.80
2023-01-31T04:22:01.983Z,22.07
2023-01-31T04:23:03.946Z,23.07
2023-01-31T04:24:05.473Z,19.90
2023-01-31T04:25:07.828Z,17.03
2023-01-31T04:26:09.172Z,17.20
2023-01-31T04:27:11.143Z,23.37
2023-01-31T04:28:12.579Z,20.93
2023-01-31T04:29:13.982Z,19.17
2023-01-31T04:30:15.317Z,18.33
2023-01-31T04:31:16.768Z,22.83
2023-01-31T04:32:18.337Z,20.67
2023-01-31T04:33:19.798Z,18.97
2023-01-31T04:34:21.368Z,23.43
2023-01-31T04:35:22.882Z,21.90
2023-01-31T04:36:25.006Z,24.00
2023-01-31T04:37:26.460Z,18.77
2023-01-31T04:38:27.904Z,16.37
2023-01-31T04:39:29.228Z,21.70
2023-01-31T04:40:30.607Z,19.60
2023-01-31T04:41:32.081Z,24.30
2023-01-31T04:42:33.566Z,21.97
2023-01-31T04:43:34.958Z,23.97
2023-01-31T04:44:36.608Z,24.37
2023-01-31T04:45:37.967Z,21.37
2023-01-31T04:46:39.482Z,25.10
2023-01-31T04:47:40.818Z,21.60
2023-01-31T04:48:42.330Z,24.90
2023-01-31T04:49:44.216Z,23.80
2023-01-31T04:50:45.751Z,24.40
2023-01-31T04:51:47.205Z,21.90
2023-01-31T04:52:51.979Z,23.07
2023-01-31T04:53:53.418Z,22.93
2023-01-31T04:54:54.832Z,23.20
2023-01-31T04:55:56.162Z,27.43
2023-01-31T04:56:57.618Z,27.60
2023-01-31T04:57:59.061Z,31.47
2023-01-31T04:59:00.528Z,26.03
2023-01-31T05:00:02.039Z,30.80
2023-01-31T05:01:03.502Z,29.27
2023-01-31T05:02:04.937Z,24.83
2023-01-31T05:03:06.484Z,29.57
2023-01-31T05:04:08.295Z,25.37
2023-01-31T05:05:09.822Z,26.93
2023-01-31T05:06:11.184Z,25.73
2023-01-31T05:07:12.570Z,24.27
2023-01-31T05:08:13.967Z,25.27
2023-01-31T05:09:15.408Z,22.93
2023-01-31T05:10:18.286Z,25.03
2023-01-31T05:11:19.952Z,27.73
2023-01-31T05:12:21.290Z,23.20
2023-01-31T05:13:24.134Z,24.10
2023-01-31T05:14:25.565Z,23.97
2023-01-31T05:15:26.957Z,26.50
2023-01-31T05:16:28.424Z,23.70
2023-01-31T05:17:30.679Z,27.37
2023-01-31T05:18:32.703Z,25.80
2023-01-31T05:19:34.208Z,27.37
2023-01-31T05:20:40.895Z,25.60
2023-01-31T05:22:00.522Z,27.83
2023-01-31T05:23:02.150Z,25.33
2023-01-31T05:24:03.969Z,22.67
2023-01-31T05:25:05.981Z,25.67
2023-01-31T05:26:07.405Z,23.93
2023-01-31T05:27:09.618Z,28.10
2023-01-31T05:28:11.457Z,26.40
2023-01-31T05:29:13.093Z,26.90
2023-01-31T05:30:14.619Z,25.30
2023-01-31T05:31:16.328Z,23.67
2023-01-31T05:32:19.384Z,23.77
2023-01-31T05:33:20.941Z,22.50
2023-01-31T05:34:24.153Z,26.10
2023-01-31T05:35:31.639Z,30.23
2023-01-31T05:36:36.151Z,26.60
2023-01-31T05:37:37.485Z,26.70
2023-01-31T05:38:38.829Z,25.43
2023-01-31T05:39:42.894Z,23.67
2023-01-31T05:40:47.600Z,25.13
2023-01-31T05:41:49.074Z,24.50
2023-01-31T05:43:02.003Z,30.43
2023-01-31T05:44:03.622Z,26.20
2023-01-31T05:45:08.452Z,25.03
2023-01-31T05:46:10.065Z,24.57
2023-01-31T05:47:11.658Z,29.33
2023-01-31T05:48:13.598Z,24.73
2023-01-31T05:49:15.416Z,24.10
2023-01-31T05:50:17.588Z,24.87
2023-01-31T05:51:19.094Z,26.37
2023-01-31T05:52:23.315Z,26.53
2023-01-31T05:53:25.088Z,28.13
2023-01-31T05:54:26.680Z,28.63
2023-01-31T05:55:28.095Z,30.43
2023-01-31T05:56:32.363Z,31.90
2023-01-31T05:57:36.720Z,29.83
2023-01-31T05:58:38.262Z,25.27
2023-01-31T05:59:40.942Z,24.20
2023-01-31T06:00:43.108Z,30.83
2023-01-31T06:01:44.648Z,26.83
2023-01-31T06:02:46.212Z,28.13
2023-01-31T06:03:47.580Z,31.07
2023-01-31T06:04:49.404Z,27.63
2023-01-31T06:05:53.127Z,21.93
2023-01-31T06:07:00.583Z,25.97
2023-01-31T06:08:04.981Z,24.00
2023-01-31T06:09:14.304Z,23.63
2023-01-31T06:10:22.065Z,29.80
2023-01-31T06:11:25.202Z,24.63
2023-01-31T06:12:29.118Z,26.63
2023-01-31T06:13:33.229Z,25.60
2023-01-31T06:14:37.174Z,28.93
2023-01-31T06:15:42.716Z,24.97
2023-01-31T06:16:44.111Z,33.07
2023-01-31T06:17:50.929Z,27.80
2023-01-31T06:18:52.582Z,28.03
2023-01-31T06:19:53.998Z,24.57
2023-01-31T06:20:58.698Z,25.13
2023-01-31T06:22:00.451Z,23.57
2023-01-31T06:23:02.046Z,27.07
2023-01-31T06:24:03.578Z,23.10
2023-01-31T06:25:05.289Z,24.57
2023-01-31T06:26:06.723Z,28.70
2023-01-31T06:27:08.321Z,25.00
2023-01-31T06:28:09.748Z,26.83
2023-01-31T06:29:11.793Z,24.80
2023-01-31T06:30:13.412Z,25.43
2023-01-31T06:31:14.899Z,25.90
2023-01-31T06:32:16.413Z,25.23
2023-01-31T06:33:18.039Z,22.60
2023-01-31T06:34:19.890Z,27.73
2023-01-31T06:35:21.635Z,26.07
2023-01-31T06:36:23.290Z,27.13
2023-01-31T06:37:24.708Z,23.90
2023-01-31T06:38:28.622Z,23.00
2023-01-31T06:39:30.640Z,27.97
2023-01-31T06:40:32.041Z,22.03
2023-01-31T06:41:33.514Z,23.33
2023-01-31T06:42:35.112Z,25.67
2023-01-31T06:43:36.524Z,25.00
2023-01-31T06:44:38.000Z,26.63
2023-01-31T06:45:39.401Z,22.87
2023-01-31T06:46:40.816Z,24.07
2023-01-31T06:47:44.324Z,23.53
2023-01-31T06:48:45.783Z,19.80
2023-01-31T06:49:47.168Z,22.27
2023-01-31T06:50:48.537Z,23.00
2023-01-31T06:51:49.918Z,26.70
2023-01-31T06:52:51.295Z,19.50
2023-01-31T06:53:53.109Z,25.87
2023-01-31T06:54:54.496Z,28.20
2023-01-31T06:55:56.369Z,25.07
2023-01-31T06:56:57.810Z,26.77
2023-01-31T06:57:59.253Z,23.33
2023-01-31T06:59:00.606Z,29.53
2023-01-31T07:00:02.203Z,23.03
2023-01-31T07:01:04.457Z,23.93
2023-01-31T07:02:06.311Z,20.27
2023-01-31T07:03:07.729Z,25.23
2023-01-31T07:04:09.285Z,26.10
2023-01-31T07:05:10.911Z,25.73
2023-01-31T07:06:12.332Z,22.00
2023-01-31T07:07:13.829Z,27.20
2023-01-31T07:08:15.246Z,26.97
2023-01-31T07:09:16.690Z,25.43
2023-01-31T07:10:18.320Z,24.03
2023-01-31T07:11:19.676Z,21.33
2023-01-31T07:12:25.442Z,18.83
2023-01-31T07:13:30.191Z,24.83
2023-01-31T07:14:31.648Z,21.33
2023-01-31T07:15:32.992Z,20.97
2023-01-31T07:16:34.415Z,22.83
2023-01-31T07:17:35.878Z,23.03
2023-01-31T07:18:37.296Z,21.87
2023-01-31T07:19:38.662Z,21.10
2023-01-31T07:20:40.473Z,22.47
2023-01-31T07:21:42.270Z,24.33
2023-01-31T07:22:43.638Z,20.70
2023-01-31T07:23:45.556Z,22.07
2023-01-31T07:24:46.950Z,22.80
2023-01-31T07:25:48.330Z,26.07
2023-01-31T07:26:51.902Z,19.63
2023-01-31T07:27:53.352Z,23.37
2023-01-31T07:28:54.789Z,23.27
2023-01-31T07:29:56.232Z,23.57
2023-01-31T07:31:04.107Z,24.70
2023-01-31T07:32:05.610Z,23.43
2023-01-31T07:33:07.085Z,23.03
2023-01-31T07:34:08.443Z,21.47
2023-01-31T07:35:09.963Z,24.20
2023-01-31T07:36:13.186Z,27.43
2023-01-31T07:37:14.573Z,26.57
2023-01-31T07:38:15.971Z,23.83
2023-01-31T07:39:17.511Z,25.03
2023-01-31T07:40:25.282Z,22.50
2023-01-31T07:41:26.718Z,24.47
2023-01-31T07:42:28.615Z,26.53
2023-01-31T07:43:45.098Z,24.70
2023-01-31T07:44:48.725Z,28.87
2023-01-31T07:45:50.270Z,27.63
2023-01-31T07:46:54.618Z,25.77
2023-01-31T07:47:57.571Z,21.57
2023-01-31T07:48:58.929Z,25.67
2023-01-31T07:50:00.259Z,24.63
2023-01-31T07:51:02.628Z,23.93
2023-01-31T07:52:04.044Z,25.53
2023-01-31T07:53:05.382Z,28.07
2023-01-31T07:54:06.862Z,27.23
2023-01-31T07:55:08.483Z,23.33
2023-01-31T07:56:11.369Z,25.37
2023-01-31T07:57:13.268Z,22.87
2023-01-31T07:58:15.412Z,27.43
2023-01-31T07:59:17.747Z,28.47
2023-01-31T08:00:57.917Z,24.67
2023-01-31T08:02:18.226Z,28.43
2023-01-31T08:03:33.441Z,26.03
2023-01-31T08:04:35.177Z,25.73
2023-01-31T08:05:36.573Z,22.27
2023-01-31T08:06:38.975Z,24.77
2023-01-31T08:07:40.394Z,28.27
2023-01-31T08:08:42.344Z,25.07
2023-01-31T08:09:46.056Z,27.93
2023-01-31T08:10:47.478Z,29.23
2023-01-31T08:11:48.907Z,24.53
2023-01-31T08:12:50.411Z,24.70
2023-01-31T08:13:51.815Z,28.33
2023-01-31T08:14:53.168Z,25.43
2023-01-31T08:15:54.703Z,26.60
2023-01-31T08:16:56.594Z,24.93
2023-01-31T08:17:57.977Z,28.93
2023-01-31T08:18:59.315Z,26.87
2023-01-31T08:20:00.735Z,26.00
2023-01-31T08:21:02.073Z,28.70
2023-01-31T08:22:04.529Z,25.50
2023-01-31T08:23:05.957Z,24.97
2023-01-31T08:24:07.765Z,22.97
2023-01-31T08:25:21.335Z,27.37
2023-01-31T08:26:25.826Z,22.63
2023-01-31T08:27:27.212Z,20.47
2023-01-31T08:28:29.157Z,19.57
2023-01-31T08:29:33.530Z,26.50
2023-01-31T08:30:41.813Z,23.67
2023-01-31T08:31:46.813Z,20.47
2023-01-31T08:32:50.710Z,20.70
2023-01-31T08:33:55.665Z,26.90
2023-01-31T08:35:08.954Z,27.17
2023-01-31T08:36:20.978Z,23.00
2023-01-31T08:37:22.424Z,25.77
2023-01-31T08:38:24.613Z,24.03
2023-01-31T08:39:26.255Z,21.00
2023-01-31T08:40:27.718Z,19.47
2023-01-31T08:41:30.462Z,23.47
2023-01-31T08:42:35.696Z,23.43
2023-01-31T08:43:52.892Z,22.80
2023-01-31T08:44:56.539Z,23.57
2023-01-31T08:45:58.025Z,21.73
2023-01-31T08:47:04.786Z,21.80
2023-01-31T08:48:06.687Z,18.80
2023-01-31T08:49:09.978Z,20.50
2023-01-31T08:50:26.875Z,22.47
2023-01-31T08:51:31.403Z,23.57
2023-01-31T08:52:35.474Z,17.30
2023-01-31T08:53:41.739Z,21.17
2023-01-31T08:54:43.306Z,23.43
2023-01-31T08:55:44.723Z,23.83
2023-01-31T08:56:46.067Z,21.70
2023-01-31T08:57:58.942Z,20.47
2023-01-31T08:59:04.027Z,20.07
2023-01-31T09:00:05.899Z,21.00
2023-01-31T09:01:09.234Z,22.53
2023-01-31T09:02:25.617Z,24.10
2023-01-31T09:03:30.191Z,20.67
2023-01-31T09:04:32.374Z,22.30
2023-01-31T09:05:34.386Z,24.77
2023-01-31T09:06:36.007Z,25.40
2023-01-31T09:07:37.449Z,20.60
2023-01-31T09:08:38.807Z,26.30
2023-01-31T09:09:40.164Z,22.47
2023-01-31T09:10:41.586Z,25.93
2023-01-31T09:11:43.058Z,22.17
2023-01-31T09:12:44.491Z,20.30
2023-01-31T09:13:46.693Z,23.20
2023-01-31T09:14:50.118Z,24.90
2023-01-31T09:16:11.239Z,22.63
2023-01-31T09:17:12.868Z,23.47
2023-01-31T09:18:18.309Z,23.47
2023-01-31T09:24:53.404Z,20.03
2023-01-31T09:25:58.470Z,21.63
2023-01-31T09:26:59.868Z,25.07
2023-01-31T09:28:15.784Z,20.93
2023-01-31T09:29:23.160Z,25.57
2023-01-31T09:30:24.527Z,27.07
2023-01-31T09:31:26.038Z,25.93
2023-01-31T09:32:27.364Z,18.73
2023-01-31T09:33:33.337Z,24.77
2023-01-31T09:34:34.953Z,21.77
2023-01-31T09:35:36.859Z,22.97
2023-01-31T09:36:44.408Z,20.07
2023-01-31T09:37:45.911Z,23.63
2023-01-31T09:38:50.637Z,23.53
2023-01-31T09:39:55.397Z,22.27
2023-01-31T09:40:58.869Z,19.67
2023-01-31T09:42:05.549Z,21.30
2023-01-31T09:43:07.081Z,21.57
2023-01-31T09:44:15.047Z,23.60
2023-01-31T09:45:22.321Z,22.27
2023-01-31T09:46:26.176Z,19.23
2023-01-31T09:47:39.174Z,19.97
2023-01-31T09:48:42.416Z,22.73
2023-01-31T09:49:54.773Z,18.40
2023-01-31T09:50:58.490Z,22.33
2023-01-31T09:52:03.696Z,18.60
2023-01-31T09:53:06.867Z,21.20
2023-01-31T09:54:23.443Z,17.97
2023-01-31T09:55:44.617Z,20.93
2023-01-31T09:56:56.163Z,21.70
2023-01-31T09:58:05.217Z,19.50
2023-01-31T09:59:06.527Z,18.77
2023-01-31T10:00:13.062Z,18.03
2023-01-31T10:01:33.030Z,22.13
2023-01-31T10:02:40.285Z,16.97
2023-01-31T10:04:04.352Z,18.93
2023-01-31T10:05:19.831Z,22.90
2023-01-31T10:06:29.445Z,19.13
2023-01-31T10:07:37.151Z,15.30
2023-01-31T10:08:58.301Z,16.30
2023-01-31T10:10:11.337Z,16.23
2023-01-31T10:12:09.069Z,18.17
2023-01-31T10:13:23.408Z,17.77
2023-01-31T10:14:38.124Z,19.53
2023-01-31T10:15:42.774Z,16.23
2023-01-31T10:16:46.584Z,20.40
2023-01-31T10:17:51.090Z,16.67
2023-01-31T10:19:13.161Z,17.43
2023-01-31T10:20:22.392Z,16.57
2023-01-31T10:21:27.142Z,17.43
2023-01-31T10:22:40.220Z,25.10
2023-01-31T10:23:48.290Z,19.23
2023-01-31T10:24:57.799Z,17.73
2023-01-31T10:26:06.265Z,19.60
2023-01-31T10:27:12.870Z,18.83
2023-01-31T10:28:37.970Z,15.30
2023-01-31T10:29:49.673Z,15.30
2023-01-31T10:31:03.253Z,15.87
2023-01-31T10:32:08.661Z,17.13
2023-01-31T10:33:19.097Z,19.33
2023-01-31T10:34:39.891Z,16.30
2023-01-31T10:35:42.574Z,15.67
2023-01-31T10:36:55.682Z,13.30
2023-01-31T10:40:41.812Z,14.73
2023-01-31T10:42:01.695Z,16.90
2023-01-31T10:43:23.367Z,16.07
2023-01-31T10:44:28.907Z,14.50
2023-01-31T10:45:34.643Z,14.87
2023-01-31T10:46:36.042Z,16.00
2023-01-31T10:47:44.137Z,16.13
2023-01-31T10:48:48.305Z,13.57
2023-01-31T10:49:50.474Z,16.73
2023-01-31T10:50:57.132Z,15.60
2023-01-31T10:52:08.635Z,19.13
2023-01-31T10:53:09.999Z,18.73
2023-01-31T10:55:55.215Z,17.20
2023-01-31T10:56:59.339Z,19.47
2023-01-31T10:58:01.540Z,17.67
2023-01-31T10:59:13.404Z,16.20
2023-01-31T11:00:27.716Z,14.00
2023-01-31T11:01:31.608Z,15.43
2023-01-31T11:02:33.312Z,14.53
2023-01-31T11:03:42.592Z,15.57
2023-01-31T11:04:46.520Z,16.47
2023-01-31T11:05:51.608Z,16.00
2023-01-31T11:06:53.886Z,17.80
2023-01-31T11:08:06.262Z,16.97
2023-01-31T11:09:16.547Z,15.43
2023-01-31T11:10:29.035Z,13.93
2023-01-31T11:11:30.369Z,16.37
2023-01-31T11:12:56.029Z,13.40
2023-01-31T11:14:07.035Z,15.57
2023-01-31T11:15:16.401Z,14.43
2023-01-31T11:16:17.768Z,17.50
2023-01-31T11:17:24.367Z,17.00
2023-01-31T11:18:32.347Z,17.60
2023-01-31T11:19:38.385Z,15.60
2023-01-31T11:20:47.182Z,16.63
2023-01-31T11:21:58.748Z,15.00
2023-01-31T11:23:03.066Z,15.67
2023-01-31T11:24:05.954Z,11.50
2023-01-31T11:25:07.443Z,14.20
2023-01-31T11:26:09.414Z,12.53
2023-01-31T11:27:14.162Z,15.17
2023-01-31T11:28:23.676Z,15.37
2023-01-31T11:29:34.439Z,16.33
2023-01-31T11:30:38.420Z,15.17
2023-01-31T11:31:41.314Z,13.40
2023-01-31T11:32:49.085Z,11.90
2023-01-31T11:33:56.444Z,18.20
2023-01-31T11:35:17.739Z,14.90
2023-01-31T11:36:26.790Z,19.37
2023-01-31T11:37:57.264Z,13.30
2023-01-31T11:38:58.615Z,17.87
2023-01-31T11:40:02.845Z,15.33
2023-01-31T11:41:23.139Z,16.50
2023-01-31T11:42:24.981Z,17.67
2023-01-31T11:43:29.660Z,17.97
2023-01-31T11:44:34.168Z,18.07
2023-01-31T11:45:40.152Z,12.60
2023-01-31T11:46:51.725Z,14.30
2023-01-31T11:47:54.271Z,13.97
2023-01-31T11:48:56.151Z,15.73
2023-01-31T11:50:02.248Z,16.83
2023-01-31T11:51:14.159Z,16.23
2023-01-31T11:52:24.080Z,16.40
2023-01-31T11:53:48.673Z,15.87
2023-01-31T11:54:54.210Z,14.53
2023-01-31T11:56:01.136Z,12.23
2023-01-31T11:57:02.819Z,15.97
2023-01-31T11:58:19.934Z,13.57
2023-01-31T11:59:25.944Z,15.17
2023-01-31T12:00:33.292Z,20.27
2023-01-31T12:01:35.901Z,14.37
2023-01-31T12:02:42.746Z,14.47
2023-01-31T12:04:01.181Z,15.03
2023-01-31T12:05:10.488Z,14.97
2023-01-31T12:06:25.267Z,14.23
2023-01-31T12:07:33.336Z,11.27
2023-01-31T12:08:43.143Z,16.67
2023-01-31T12:09:44.569Z,13.93
2023-01-31T12:10:45.976Z,15.70
2023-01-31T12:11:53.591Z,17.83
2023-01-31T12:13:08.832Z,15.53
2023-01-31T12:14:21.268Z,13.07
2023-01-31T12:15:22.922Z,15.27
2023-01-31T12:16:25.052Z,13.00
2023-01-31T12:17:31.749Z,13.87
2023-01-31T12:18:36.458Z,18.37
2023-01-31T12:19:56.730Z,17.53
2023-01-31T12:21:20.405Z,13.93
2023-01-31T12:22:28.200Z,12.97
2023-01-31T12:23:55.497Z,14.87
2023-01-31T12:25:22.920Z,12.93
2023-01-31T12:26:27.560Z,17.27
2023-01-31T12:27:34.654Z,14.27
2023-01-31T12:28:36.004Z,12.87
2023-01-31T12:29:53.788Z,10.43
2023-01-31T12:31:15.801Z,14.63
2023-01-31T12:32:38.761Z,13.80
2023-01-31T12:33:50.393Z,13.17
2023-01-31T12:35:04.097Z,14.07
2023-01-31T12:36:07.687Z,14.00
2023-01-31T12:37:24.522Z,13.40
2023-01-31T12:38:41.232Z,12.80
2023-01-31T12:39:51.059Z,13.57
2023-01-31T12:41:01.860Z,11.23
2023-01-31T12:42:09.707Z,15.50
2023-01-31T12:43:25.847Z,14.40
2023-01-31T12:44:34.835Z,14.73
2023-01-31T12:46:13.460Z,13.57
2023-01-31T12:47:16.730Z,11.10
2023-01-31T12:48:39.029Z,11.67
2023-01-31T12:49:56.059Z,11.23
2023-01-31T12:51:09.631Z,12.80
2023-01-31T12:52:32.202Z,17.00
2023-01-31T12:53:57.637Z,12.67
2023-01-31T12:55:22.449Z,15.53
2023-01-31T12:56:35.765Z,15.73
2023-01-31T12:57:42.651Z,12.80
2023-01-31T12:58:51.296Z,15.63
2023-01-31T13:00:03.391Z,16.50
2023-01-31T13:01:07.273Z,13.07
2023-01-31T13:02:17.934Z,11.50
2023-01-31T13:03:38.965Z,14.60
2023-01-31T13:04:53.106Z,14.83
2023-01-31T13:06:00.901Z,10.70
2023-01-31T13:07:24.919Z,13.50
2023-01-31T13:08:28.234Z,11.90
2023-01-31T13:09:34.556Z,13.67
2023-01-31T13:10:43.572Z,11.67
2023-01-31T13:11:52.159Z,14.63
2023-01-31T13:12:54.605Z,11.23
2023-01-31T13:13:57.433Z,12.87
2023-01-31T13:15:04.531Z,12.63
2023-01-31T13:16:14.308Z,12.07
2023-01-31T13:17:18.390Z,12.97
2023-01-31T13:18:24.109Z,14.13
2023-01-31T13:19:28.433Z,13.93
2023-01-31T13:20:52.710Z,14.30
2023-01-31T13:22:02.208Z,11.90
2023-01-31T13:23:06.667Z,14.90
2023-01-31T13:24:19.149Z,15.80
2023-01-31T13:25:32.925Z,11.60
2023-01-31T13:26:46.588Z,13.03
2023-01-31T13:28:01.433Z,16.03
2023-01-31T13:29:33.524Z,16.93
2023-01-31T13:30:38.226Z,15.90
2023-01-31T13:31:47.117Z,13.43
2023-01-31T13:32:49.647Z,18.73
2023-01-31T13:33:54.276Z,18.03
2023-01-31T13:35:04.887Z,13.30
2023-01-31T13:36:19.815Z,15.87
2023-01-31T13:37:30.250Z,15.70
2023-01-31T13:38:36.220Z,13.13
2023-01-31T13:39:44.692Z,13.10
2023-01-31T13:40:52.298Z,13.13
2023-01-31T13:41:56.045Z,12.70
2023-01-31T13:43:00.812Z,13.53
2023-01-31T13:44:02.737Z,14.40
2023-01-31T13:45:07.710Z,16.60
2023-01-31T13:46:13.184Z,11.67
2023-01-31T13:47:16.603Z,12.43
2023-01-31T13:48:24.135Z,12.80
2023-01-31T13:49:47.297Z,14.63
2023-01-31T13:51:00.044Z,13.23
2023-01-31T13:52:22.767Z,13.53
2023-01-31T13:53:27.869Z,13.13
2023-01-31T13:54:35.268Z,12.77
2023-01-31T13:55:38.311Z,15.67
2023-01-31T13:56:43.190Z,12.93
2023-01-31T13:57:52.922Z,13.40
2023-01-31T13:58:56.018Z,14.30
2023-01-31T14:00:06.658Z,14.77
2023-01-31T14:01:15.416Z,15.10
2023-01-31T14:02:18.246Z,12.67
2023-01-31T14:03:22.519Z,12.63
2023-01-31T14:04:26.935Z,13.33
2023-01-31T14:05:49.896Z,12.03
2023-01-31T14:06:54.298Z,14.60
2023-01-31T14:08:14.510Z,10.37
2023-01-31T14:09:24.995Z,16.77
2023-01-31T14:10:27.507Z,12.30
2023-01-31T14:11:28.986Z,12.03
2023-01-31T14:12:37.385Z,11.20
2023-01-31T14:13:40.879Z,11.97
2023-01-31T14:14:54.066Z,12.97
2023-01-31T14:15:56.267Z,12.97
2023-01-31T14:16:57.752Z,13.10
2023-01-31T14:18:00.469Z,11.70
2023-01-31T14:19:04.506Z,13.90
2023-01-31T14:20:07.534Z,10.70